Time;durP1;ratioP1;P1;durP2;ratioP2;P2;SDS_P1;SDS_P2;PMS_P1;PMS_P2;Temp;Humidity;BMP_temperature;BMP_pressure;BME280_temperature;BME280_humidity;BME280_pressure;Samples;Min_cycle;Max_cycle;Signal;HPM_P1;HPM_P2
2022/01/20 00:01:38;;;;;;;0.10;0.10;;;2.90;99.90;226.50;231333.00;;;;4944132;28;20597;-72
2022/01/20 00:04:15;;;;;;;0.10;0.10;;;2.90;99.90;226.50;231333.00;;;;4946219;28;20206;-72
2022/01/20 00:09:47;;;;;;;0.10;0.10;;;2.90;99.90;226.50;231333.00;;;;4944706;28;20292;-72
2022/01/20 00:23:42;;;;;;;0.10;0.10;;;2.90;99.90;226.50;231333.00;;;;4955388;29;20217;-72
2022/01/20 00:26:13;;;;;;;0.10;0.10;;;2.90;99.90;226.50;231333.00;;;;4944593;29;20241;-72
2022/01/20 00:28:43;;;;;;;0.10;0.10;;;2.90;99.90;226.50;231333.00;;;;4944335;29;20210;-72
2022/01/20 00:31:30;;;;;;;0.10;0.10;;;2.90;99.90;226.50;231333.00;;;;4944978;28;20244;-72
2022/01/20 00:34:10;;;;;;;0.10;0.10;;;2.90;99.90;226.50;231333.00;;;;4970680;28;20198;-72
2022/01/20 00:39:28;;;;;;;0.10;0.10;;;3.00;99.90;226.50;231333.00;;;;4942784;29;20594;-73
2022/01/20 00:41:56;;;;;;;0.10;0.10;;;3.00;99.90;226.50;231333.00;;;;4943010;29;20201;-72
2022/01/20 00:44:26;;;;;;;0.10;0.10;;;3.00;99.90;226.50;231333.00;;;;4944061;29;20202;-72
2022/01/20 00:46:55;;;;;;;0.10;0.10;;;3.00;99.90;226.50;231333.00;;;;4964131;28;20194;-73
2022/01/20 00:49:23;;;;;;;0.10;0.10;;;3.00;99.90;226.50;231333.00;;;;4955425;28;20731;-73
2022/01/20 00:51:51;;;;;;;0.10;0.10;;;3.00;99.90;226.50;231333.00;;;;4943673;28;20198;-73
2022/01/20 00:54:20;;;;;;;0.10;0.10;;;3.00;99.90;226.50;231333.00;;;;4958706;28;20199;-72
2022/01/20 00:56:49;;;;;;;0.10;0.10;;;3.00;99.90;226.50;231333.00;;;;4942111;29;20730;-74
2022/01/20 00:59:17;;;;;;;0.10;0.10;;;3.00;99.90;226.50;231333.00;;;;4964846;28;20572;-73
2022/01/20 01:01:46;;;;;;;0.10;0.10;;;3.10;99.90;226.50;231333.00;;;;4958144;28;20228;-73
2022/01/20 01:04:15;;;;;;;0.10;0.10;;;3.10;99.90;226.50;231333.00;;;;4944097;29;20198;-73
2022/01/20 01:07:02;;;;;;;0.10;0.10;;;3.10;99.90;1.30;95430.00;;;;4942915;29;20205;-73
2022/01/20 01:09:32;;;;;;;0.10;0.10;;;3.10;99.90;1.20;95933.00;;;;4943139;29;20208;-73
2022/01/20 01:12:05;;;;;;;0.10;0.10;;;3.10;99.90;1.20;96081.00;;;;4944155;29;20222;-72
2022/01/20 01:14:34;;;;;;;0.10;0.10;;;3.00;99.90;1.20;96196.00;;;;4957427;28;20209;-73
2022/01/20 01:20:09;;;;;;;0.10;0.10;;;3.00;99.90;1.30;95372.00;;;;4942345;29;20616;-72
2022/01/20 01:22:37;;;;;;;0.10;0.10;;;3.00;99.90;1.20;95608.00;;;;4941254;29;20213;-72
2022/01/20 01:25:06;;;;;;;0.10;0.10;;;3.00;99.90;1.20;95425.00;;;;4954884;28;20202;-72
2022/01/20 01:27:39;;;;;;;0.10;0.10;;;3.00;99.90;1.20;95233.00;;;;4941866;29;20458;-72
2022/01/20 01:30:25;;;;;;;0.10;0.10;;;3.00;99.90;1.50;94599.00;;;;4940811;29;20234;-72
2022/01/20 01:32:55;;;;;;;0.10;0.10;;;3.00;99.90;1.40;94937.00;;;;4941786;29;20214;-72
2022/01/20 01:35:26;;;;;;;0.10;0.10;;;3.00;99.90;1.40;94744.00;;;;4954684;28;20227;-72
2022/01/20 01:40:42;;;;;;;0.10;0.10;;;3.00;99.90;1.30;94863.00;;;;4968619;28;20233;-71
2022/01/20 01:43:18;;;;;;;0.10;0.10;;;3.00;99.90;1.50;94671.00;;;;4957377;28;20743;-72
2022/01/20 01:45:48;;;;;;;0.10;0.10;;;3.00;99.90;1.40;95071.00;;;;4942823;29;20193;-71
2022/01/20 01:48:18;;;;;;;0.10;0.10;;;3.00;99.90;1.50;94685.00;;;;4955298;28;20250;-72
2022/01/20 01:50:47;;;;;;;0.10;0.10;;;3.00;99.90;1.40;94859.00;;;;4958243;28;20217;-71
2022/01/20 01:53:16;;;;;;;0.10;0.10;;;3.00;99.90;1.40;94988.00;;;;4957354;28;20233;-72
2022/01/20 01:55:44;;;;;;;0.10;0.10;;;3.00;99.90;1.40;94827.00;;;;4956985;28;20302;-72
2022/01/20 01:58:14;;;;;;;0.10;0.10;;;3.00;99.90;1.80;94181.00;;;;4970689;28;20639;-72
2022/01/20 02:00:59;;;;;;;0.10;0.10;;;2.90;99.90;1.10;94935.00;;;;4971402;28;20297;-72
2022/01/20 02:03:29;;;;;;;0.10;0.10;;;2.90;99.90;1.30;94727.00;;;;4970939;28;20281;-72
2022/01/20 02:06:21;;;;;;;0.10;0.10;;;2.90;99.90;1.20;95194.00;;;;4966276;28;20232;-72
2022/01/20 02:08:57;;;;;;;0.10;0.10;;;2.90;99.90;1.10;95325.00;;;;4973869;28;20289;-71
2022/01/20 02:19:54;;;;;;;0.10;0.10;;;2.80;99.90;1.20;94844.00;;;;4933047;29;20601;-71
2022/01/20 02:22:41;;;;;;;0.10;0.10;;;2.70;99.90;1.20;94577.00;;;;4964356;28;20198;-72
2022/01/20 02:25:23;;;;;;;0.10;0.10;;;2.80;99.90;1.10;94801.00;;;;4961626;28;20197;-72
2022/01/20 02:27:52;;;;;;;0.10;0.10;;;2.80;99.90;1.30;94633.00;;;;4943470;29;20206;-72
2022/01/20 02:30:24;;;;;;;0.10;0.10;;;2.80;99.90;1.20;95131.00;;;;4967264;23;20241;-74
2022/01/20 02:32:55;;;;;;;0.10;0.10;;;2.90;99.90;1.50;94497.00;;;;4941148;29;20197;-74
2022/01/20 02:35:29;;;;;;;0.10;0.10;;;2.90;99.90;1.30;94856.00;;;;4948643;29;20198;-74
2022/01/20 02:37:59;;;;;;;0.10;0.10;;;2.90;99.90;1.40;94834.00;;;;4958386;28;20197;-74
2022/01/20 02:44:49;;;;;;;0.10;0.10;;;3.00;99.90;1.30;94977.00;;;;4958322;28;20222;-73
2022/01/20 02:46:10;;;;;;;0.10;0.10;;;2.90;99.90;1.30;94990.00;;;;4913354;29;20748;-74
2022/01/20 02:48:38;;;;;;;0.10;0.10;;;2.90;99.90;1.30;94997.00;;;;4957377;28;20288;-74
2022/01/20 02:51:08;;;;;;;0.10;0.10;;;3.00;99.90;1.60;94544.00;;;;4961499;28;20274;-74
2022/01/20 02:53:37;;;;;;;0.10;0.10;;;3.00;99.90;1.20;95213.00;;;;4949283;29;20555;-75
2022/01/20 02:56:06;;;;;;;0.10;0.10;;;3.00;99.90;1.40;94897.00;;;;4957263;28;20195;-74
2022/01/20 02:58:34;;;;;;;0.10;0.10;;;3.00;99.90;1.20;95148.00;;;;4941541;29;20686;-74
2022/01/20 03:01:02;;;;;;;0.10;0.10;;;3.00;99.90;1.30;95036.00;;;;4954710;28;20233;-74
2022/01/20 03:03:31;;;;;;;0.10;0.10;;;3.00;99.90;1.50;95108.00;;;;4940485;29;20237;-74
2022/01/20 03:05:59;;;;;;;0.10;0.10;;;3.10;99.90;1.30;95484.00;;;;4948194;29;20639;-74
2022/01/20 03:08:28;;;;;;;0.10;0.10;;;3.10;99.90;1.20;95624.00;;;;4942144;29;20194;-74
2022/01/20 03:10:56;;;;;;;0.10;0.10;;;3.10;99.90;1.30;95982.00;;;;4940510;28;20222;-75
2022/01/20 03:13:25;;;;;;;0.10;0.10;;;3.10;99.90;1.40;95319.00;;;;4941765;29;20199;-74
2022/01/20 03:15:54;;;;;;;0.10;0.10;;;3.10;99.90;1.40;95278.00;;;;4941859;29;20943;-74
2022/01/20 03:18:22;;;;;;;0.10;0.10;;;3.20;99.90;1.60;94660.00;;;;4940564;29;20202;-74
2022/01/20 03:20:50;;;;;;;0.10;0.10;;;3.10;99.90;1.30;95147.00;;;;4938552;29;20253;-74
2022/01/20 03:23:18;;;;;;;0.10;0.10;;;3.10;99.90;1.40;95136.00;;;;4957541;28;20194;-75
2022/01/20 03:25:48;;;;;;;0.10;0.10;;;3.10;99.90;1.30;95149.00;;;;4942094;29;20202;-75
2022/01/20 03:28:16;;;;;;;0.10;0.10;;;3.00;99.90;1.10;95795.00;;;;4942347;29;20221;-75
2022/01/20 03:30:44;;;;;;;0.10;0.10;;;3.00;99.90;1.20;95031.00;;;;4947883;29;20300;-74
2022/01/20 03:33:12;;;;;;;0.10;0.10;;;2.90;99.90;1.30;94781.00;;;;4957348;28;20297;-75
2022/01/20 03:35:41;;;;;;;0.10;0.10;;;2.90;99.90;1.10;95380.00;;;;4947750;29;20578;-73
2022/01/20 03:38:28;;;;;;;0.10;0.10;;;2.90;99.90;1.30;95107.00;;;;4943295;29;20583;-74
2022/01/20 03:40:58;;;;;;;0.10;0.10;;;2.90;99.90;1.10;95289.00;;;;4949015;29;20320;-73
2022/01/20 03:43:27;;;;;;;0.10;0.10;;;2.90;99.90;1.10;95054.00;;;;4942162;29;20229;-74
2022/01/20 03:45:57;;;;;;;0.10;0.10;;;2.80;99.90;1.20;94794.00;;;;4947830;29;20203;-74
2022/01/20 03:48:27;;;;;;;0.10;0.10;;;2.80;99.90;1.10;95030.00;;;;4959366;28;20194;-73
2022/01/20 03:51:02;;;;;;;0.10;0.10;;;2.80;99.90;1.10;95041.00;;;;4964062;28;20214;-74
2022/01/20 03:53:38;;;;;;;0.10;0.10;;;2.80;99.90;0.90;95536.00;;;;4971284;28;20198;-74
2022/01/20 03:56:11;;;;;;;0.10;0.10;;;2.80;99.90;1.30;94455.00;;;;4964433;29;20197;-74
2022/01/20 03:58:53;;;;;;;0.10;0.10;;;2.70;99.90;0.90;95107.00;;;;4962055;29;20559;-74
2022/01/20 04:01:22;;;;;;;0.10;0.10;;;2.70;99.90;1.00;95041.00;;;;4963379;29;20240;-73
2022/01/20 04:04:07;;;;;;;0.10;0.10;;;2.70;99.90;0.40;95172.00;;;;4956861;28;20206;-73
2022/01/20 04:06:44;;;;;;;0.10;0.10;;;2.70;99.90;1.10;94689.00;;;;4953931;28;20202;-73
2022/01/20 04:09:14;;;;;;;0.10;0.10;;;2.60;99.90;0.80;95310.00;;;;4955974;28;20213;-73
2022/01/20 04:11:43;;;;;;;0.10;0.10;;;2.70;99.90;0.90;94960.00;;;;4955528;28;20266;-73
2022/01/20 04:14:13;;;;;;;0.10;0.10;;;2.60;99.90;0.90;94917.00;;;;4945240;29;20193;-73
2022/01/20 04:17:00;;;;;;;0.10;0.10;;;2.60;99.90;0.80;95137.00;;;;4939495;29;20222;-73
2022/01/20 04:19:30;;;;;;;0.10;0.10;;;2.60;99.90;0.30;95370.00;;;;4954946;28;20201;-73
2022/01/20 04:22:00;;;;;;;0.10;0.10;;;2.50;99.90;0.60;95411.00;;;;4944169;29;20257;-73
2022/01/20 04:24:29;;;;;;;0.10;0.10;;;2.50;99.90;0.70;95514.00;;;;4952693;28;20202;-73
2022/01/20 04:27:00;;;;;;;0.10;0.10;;;2.50;99.90;2.60;93677.00;;;;4940145;29;20662;-73
2022/01/20 04:29:31;;;;;;;0.10;0.10;;;2.50;99.90;0.90;95104.00;;;;4939507;29;20289;-73
2022/01/20 04:31:59;;;;;;;0.10;0.10;;;2.60;99.90;0.70;95725.00;;;;4945453;29;20218;-73
2022/01/20 04:34:28;;;;;;;0.10;0.10;;;2.60;99.90;0.70;95337.00;;;;4940458;29;20269;-73
2022/01/20 04:36:58;;;;;;;0.10;0.10;;;2.60;99.90;0.60;95849.00;;;;4939751;29;20285;-72
2022/01/20 04:39:30;;;;;;;0.10;0.10;;;2.50;99.90;0.50;95810.00;;;;4955279;28;20220;-72
2022/01/20 04:42:00;;;;;;;0.10;0.10;;;2.40;99.90;0.70;95161.00;;;;4953935;28;20321;-72
2022/01/20 04:44:41;;;;;;;0.10;0.10;;;2.50;99.90;0.80;94847.00;;;;4953257;28;21148;-73
2022/01/20 04:47:22;;;;;;;0.10;0.10;;;2.40;99.90;226.50;231333.00;;;;4946074;29;20190;-73
2022/01/20 04:58:10;;;;;;;0.13;0.13;;;2.30;99.90;226.50;231333.00;;;;4964731;28;20193;-73
2022/01/20 05:00:38;;;;;;;0.10;0.10;;;2.30;99.90;226.50;231333.00;;;;4964032;28;20223;-73
2022/01/20 05:03:25;;;;;;;0.20;0.20;;;2.30;99.90;226.50;231333.00;;;;4937812;29;20205;-73
2022/01/20 05:05:58;;;;;;;0.10;0.10;;;2.30;99.90;226.50;231333.00;;;;4954814;28;20229;-74
2022/01/20 05:08:29;;;;;;;0.10;0.10;;;2.30;99.90;226.50;231333.00;;;;4944777;29;20203;-73
2022/01/20 05:11:02;;;;;;;0.10;0.10;;;2.30;99.90;226.50;231333.00;;;;4939912;29;20699;-72
2022/01/20 05:13:37;;;;;;;0.10;0.10;;;2.20;99.90;226.50;231333.00;;;;4945387;29;20214;-72
2022/01/20 05:16:06;;;;;;;0.10;0.10;;;2.20;99.90;226.50;231333.00;;;;4946983;29;20205;-73
2022/01/20 05:18:34;;;;;;;0.10;0.10;;;2.20;99.90;226.50;231333.00;;;;4945592;29;20194;-75
2022/01/20 05:21:03;;;;;;;0.10;0.10;;;2.10;99.90;226.50;231333.00;;;;4955975;28;20229;-73
2022/01/20 05:23:33;;;;;;;0.10;0.10;;;2.20;99.90;226.50;231333.00;;;;4946334;29;20564;-73
2022/01/20 05:26:07;;;;;;;0.10;0.10;;;2.10;99.90;226.50;231333.00;;;;4939445;29;20289;-74
2022/01/20 05:28:36;;;;;;;0.10;0.10;;;2.10;99.90;226.50;231333.00;;;;4938013;29;20285;-74
2022/01/20 05:31:04;;;;;;;0.10;0.10;;;2.10;99.90;226.50;231333.00;;;;4946232;29;20239;-73
2022/01/20 05:33:53;;;;;;;0.10;0.10;;;2.10;99.90;226.50;231333.00;;;;4945841;29;20213;-73
2022/01/20 05:36:23;;;;;;;0.10;0.10;;;2.00;99.90;226.50;231333.00;;;;4948399;29;20194;-74
2022/01/20 05:38:52;;;;;;;0.10;0.10;;;2.00;99.90;226.50;231333.00;;;;4943650;29;20241;-74
2022/01/20 05:41:20;;;;;;;0.10;0.10;;;2.10;99.90;226.50;231333.00;;;;4943027;29;20253;-74
2022/01/20 05:43:52;;;;;;;0.10;0.10;;;2.00;99.90;226.50;231333.00;;;;4945892;29;20209;-74
2022/01/20 05:46:24;;;;;;;0.10;0.10;;;2.00;99.90;226.50;231333.00;;;;4941561;29;20205;-74
2022/01/20 05:49:08;;;;;;;0.10;0.10;;;2.00;99.90;226.50;231333.00;;;;4941698;29;20198;-75
2022/01/20 05:51:46;;;;;;;0.10;0.10;;;2.00;99.90;226.50;231333.00;;;;4959188;28;20217;-74
2022/01/20 05:54:14;;;;;;;0.20;0.20;;;2.00;99.90;226.50;231333.00;;;;4945577;29;20698;-73
2022/01/20 05:56:43;;;;;;;0.20;0.20;;;1.90;99.90;226.50;231333.00;;;;4943900;29;20282;-74
2022/01/20 05:59:13;;;;;;;0.10;0.10;;;1.90;99.90;226.50;231333.00;;;;4948716;29;20190;-74
2022/01/20 06:01:41;;;;;;;0.10;0.10;;;1.90;99.90;226.50;231333.00;;;;4945017;29;20218;-74
2022/01/20 06:04:15;;;;;;;0.10;0.10;;;2.00;99.90;226.50;231333.00;;;;4957851;28;20663;-73
2022/01/20 06:06:44;;;;;;;0.10;0.10;;;1.90;99.90;226.50;231333.00;;;;4949881;29;20214;-73
2022/01/20 06:09:12;;;;;;;0.10;0.10;;;2.00;99.90;226.50;231333.00;;;;4958416;28;20289;-73
2022/01/20 06:11:40;;;;;;;0.20;0.20;;;2.00;99.90;226.50;231333.00;;;;4946684;29;20719;-74
2022/01/20 06:14:14;;;;;;;0.10;0.10;;;2.00;99.90;226.50;231333.00;;;;4959779;28;20206;-73
2022/01/20 06:16:43;;;;;;;0.10;0.10;;;2.00;99.90;226.50;231333.00;;;;4957664;28;20217;-74
2022/01/20 06:19:12;;;;;;;0.10;0.10;;;2.00;99.90;226.50;231333.00;;;;4957707;28;20625;-74
2022/01/20 06:21:42;;;;;;;0.10;0.10;;;2.00;99.90;226.50;231333.00;;;;4948740;29;20562;-74
2022/01/20 06:24:10;;;;;;;0.10;0.10;;;2.10;99.90;226.50;231333.00;;;;4958606;28;20256;-73
2022/01/20 06:26:38;;;;;;;0.10;0.10;;;2.20;99.90;226.50;231333.00;;;;4955348;28;20581;-74
2022/01/20 06:29:07;;;;;;;0.10;0.10;;;2.20;99.90;226.50;231333.00;;;;4957099;28;20742;-73
2022/01/20 06:31:36;;;;;;;0.10;0.10;;;2.30;99.90;226.50;231333.00;;;;4940786;29;20634;-74
2022/01/20 06:34:04;;;;;;;0.20;0.20;;;2.30;99.90;226.50;231333.00;;;;4939992;29;20202;-73
2022/01/20 06:36:38;;;;;;;0.10;0.10;;;2.40;99.90;226.50;231333.00;;;;4940533;29;20229;-73
2022/01/20 06:39:06;;;;;;;0.10;0.10;;;2.50;99.90;226.50;231333.00;;;;4956872;28;20226;-74
2022/01/20 06:41:39;;;;;;;0.13;0.13;;;2.50;99.90;226.50;231333.00;;;;4941674;29;20377;-74
2022/01/20 06:44:08;;;;;;;0.10;0.10;;;2.50;99.90;226.50;231333.00;;;;4938929;29;20191;-74
2022/01/20 06:46:37;;;;;;;0.10;0.10;;;2.60;99.90;226.50;231333.00;;;;4942377;28;20619;-74
2022/01/20 06:49:14;;;;;;;0.10;0.10;;;2.60;99.90;226.50;231333.00;;;;4936569;29;20460;-73
2022/01/20 06:51:52;;;;;;;0.10;0.10;;;2.70;99.90;226.50;231333.00;;;;4956797;28;20312;-73
2022/01/20 06:54:20;;;;;;;0.10;0.10;;;2.70;99.90;226.50;231333.00;;;;4944066;28;20575;-73
2022/01/20 06:56:48;;;;;;;0.10;0.10;;;2.70;99.90;226.50;231333.00;;;;4943391;29;20206;-73
2022/01/20 06:59:19;;;;;;;0.10;0.10;;;2.70;99.90;226.50;231333.00;;;;4973583;28;20190;-73
2022/01/20 07:01:49;;;;;;;0.10;0.10;;;2.70;99.90;226.50;231333.00;;;;4965621;29;20565;-74
2022/01/20 07:04:32;;;;;;;0.10;0.10;;;2.60;99.90;226.50;231333.00;;;;4975013;28;20199;-73
2022/01/20 07:07:01;;;;;;;0.10;0.10;;;2.60;99.90;226.50;231333.00;;;;4958289;29;20198;-73
2022/01/20 07:09:45;;;;;;;0.10;0.10;;;2.60;99.90;226.50;231333.00;;;;4958154;29;20714;-73
2022/01/20 07:12:22;;;;;;;0.10;0.10;;;2.60;99.90;226.50;231333.00;;;;4972101;28;20224;-72
2022/01/20 07:14:50;;;;;;;0.10;0.10;;;2.70;99.90;226.50;231333.00;;;;4959340;29;20202;-74
2022/01/20 07:17:20;;;;;;;0.10;0.10;;;2.70;99.90;226.50;231333.00;;;;4971387;28;20202;-73
2022/01/20 07:19:51;;;;;;;0.10;0.10;;;2.80;99.90;226.50;231333.00;;;;4960090;28;20647;-74
2022/01/20 07:22:22;;;;;;;0.10;0.10;;;2.80;99.90;226.50;231333.00;;;;4955392;28;20217;-73
2022/01/20 07:24:53;;;;;;;0.10;0.10;;;2.90;99.90;226.50;231333.00;;;;4940207;29;20202;-73
2022/01/20 07:27:40;;;;;;;0.10;0.10;;;2.90;99.90;226.50;231333.00;;;;4940683;29;20213;-73
2022/01/20 07:30:27;;;;;;;0.10;0.10;;;3.00;99.90;226.50;231333.00;;;;4956046;28;20221;-73
2022/01/20 07:32:57;;;;;;;0.10;0.10;;;3.00;99.90;226.50;231333.00;;;;4946877;29;20292;-73
2022/01/20 07:35:25;;;;;;;0.10;0.10;;;3.10;99.90;226.50;231333.00;;;;4964486;28;20244;-73
2022/01/20 07:37:53;;;;;;;0.10;0.10;;;3.10;99.90;226.50;231333.00;;;;4980423;28;20203;-73
2022/01/20 07:40:21;;;;;;;0.10;0.10;;;3.10;99.90;226.50;231333.00;;;;4978617;28;20212;-73
2022/01/20 07:42:50;;;;;;;0.10;0.10;;;3.10;99.90;226.50;231333.00;;;;4977944;28;20229;-73
2022/01/20 07:45:44;;;;;;;0.10;0.10;;;3.10;99.90;226.50;231333.00;;;;4984287;28;20201;-74
2022/01/20 07:48:27;;;;;;;0.10;0.10;;;3.10;99.90;226.50;231333.00;;;;4992015;28;20196;-73
2022/01/20 07:51:13;;;;;;;0.20;0.20;;;3.10;99.90;226.50;231333.00;;;;4974205;28;20702;-74
2022/01/20 07:53:43;;;;;;;0.10;0.10;;;3.10;99.90;226.50;231333.00;;;;4974639;28;20188;-73
2022/01/20 07:56:13;;;;;;;0.10;0.10;;;3.10;99.90;226.50;231333.00;;;;4992046;28;20700;-73
2022/01/20 07:58:42;;;;;;;0.10;0.10;;;3.10;99.90;226.50;231333.00;;;;4982612;28;20197;-73
2022/01/20 08:01:11;;;;;;;0.10;0.10;;;3.10;99.90;226.50;231333.00;;;;4989661;28;20227;-73
2022/01/20 08:03:49;;;;;;;0.10;0.10;;;3.10;99.90;226.50;231333.00;;;;4995475;28;20230;-74
2022/01/20 08:06:23;;;;;;;0.10;0.10;;;3.00;99.90;226.50;231333.00;;;;4959464;28;20312;-73
2022/01/20 08:09:00;;;;;;;0.10;0.10;;;3.00;99.90;226.50;231333.00;;;;4964052;28;20204;-73
2022/01/20 08:11:47;;;;;;;0.10;0.10;;;2.90;99.90;226.50;231333.00;;;;4964566;28;20287;-73
2022/01/20 08:14:40;;;;;;;0.10;0.10;;;2.80;99.90;226.50;231333.00;;;;4964072;28;20200;-73
2022/01/20 08:17:11;;;;;;;0.10;0.10;;;2.60;99.90;226.50;231333.00;;;;4995809;28;20239;-74
2022/01/20 08:19:45;;;;;;;0.10;0.10;;;2.40;99.90;226.50;231333.00;;;;4964207;28;20665;-74
2022/01/20 08:22:14;;;;;;;0.10;0.10;;;2.30;99.90;226.50;231333.00;;;;4980621;28;20223;-74
2022/01/20 08:25:06;;;;;;;0.10;0.10;;;2.30;99.90;226.50;231333.00;;;;4964267;28;20232;-74
2022/01/20 08:27:36;;;;;;;0.10;0.10;;;2.30;99.90;226.50;231333.00;;;;4979135;28;20295;-73
2022/01/20 08:30:07;;;;;;;0.10;0.10;;;2.50;99.90;226.50;231333.00;;;;5009599;23;20228;-73
2022/01/20 08:32:35;;;;;;;0.10;0.10;;;2.50;99.90;226.50;231333.00;;;;4972824;28;20215;-73
2022/01/20 08:35:21;;;;;;;0.10;0.10;;;2.50;99.90;226.50;231333.00;;;;4973613;28;20653;-73
2022/01/20 08:37:53;;;;;;;0.10;0.10;;;2.60;99.90;226.50;231333.00;;;;4973073;28;20215;-74
2022/01/20 08:40:22;;;;;;;0.10;0.10;;;2.70;99.90;226.50;231333.00;;;;4972318;28;20216;-74
2022/01/20 08:42:55;;;;;;;0.10;0.10;;;2.70;99.90;226.50;231333.00;;;;5004157;28;20216;-71
2022/01/20 08:45:28;;;;;;;0.10;0.10;;;2.80;99.90;226.50;231333.00;;;;4989956;28;20193;-70
2022/01/20 08:47:59;;;;;;;0.10;0.10;;;2.80;99.90;226.50;231333.00;;;;4972713;28;20268;-70
2022/01/20 08:50:47;;;;;;;0.13;0.13;;;2.80;99.90;226.50;231333.00;;;;4989010;28;20594;-71
2022/01/20 08:53:16;;;;;;;0.10;0.10;;;2.80;99.90;226.50;231333.00;;;;4968533;28;20215;-72
2022/01/20 08:55:44;;;;;;;0.10;0.10;;;2.90;99.90;226.50;231333.00;;;;4972285;28;20247;-71
2022/01/20 08:58:15;;;;;;;0.10;0.10;;;2.90;99.90;226.50;231333.00;;;;4972048;28;20255;-71
2022/01/20 09:00:43;;;;;;;0.10;0.10;;;2.90;99.90;226.50;231333.00;;;;4986622;28;20571;-71
2022/01/20 09:03:13;;;;;;;0.20;0.20;;;2.80;99.90;226.50;231333.00;;;;5003474;28;20220;-71
2022/01/20 09:05:42;;;;;;;0.10;0.10;;;2.80;99.90;226.50;231333.00;;;;4971781;28;20700;-71
2022/01/20 09:08:16;;;;;;;0.10;0.10;;;2.70;99.90;226.50;231333.00;;;;4971441;28;20259;-71
2022/01/20 09:10:55;;;;;;;0.10;0.10;;;2.80;99.90;226.50;231333.00;;;;4975460;28;20220;-71
2022/01/20 09:16:19;;;;;;;0.10;0.10;;;2.80;99.90;226.50;231333.00;;;;4975095;28;20208;-71
2022/01/20 09:18:53;;;;;;;0.10;0.10;;;2.80;99.90;226.50;231333.00;;;;4976676;28;20230;-71
2022/01/20 09:21:23;;;;;;;0.10;0.10;;;2.80;99.90;226.50;231333.00;;;;4977186;28;20307;-73
2022/01/20 09:23:58;;;;;;;0.10;0.10;;;2.70;99.90;226.50;231333.00;;;;5009028;28;20605;-71
2022/01/20 09:26:27;;;;;;;0.10;0.10;;;2.60;99.90;226.50;231333.00;;;;4992825;28;20227;-72
2022/01/20 09:28:59;;;;;;;0.10;0.10;;;2.50;99.90;226.50;159282.00;;;;4976949;28;20287;-71
2022/01/20 09:31:32;;;;;;;0.10;0.10;;;2.40;99.90;1.20;93666.00;;;;4977788;28;20270;-72
2022/01/20 09:34:01;;;;;;;0.10;0.10;;;2.40;99.90;226.50;159520.00;;;;4976844;28;20204;-71
2022/01/20 09:36:32;;;;;;;0.10;0.10;;;2.50;99.90;226.50;231333.00;;;;4976663;28;20247;-71
2022/01/20 09:39:02;;;;;;;0.10;0.10;;;2.40;99.90;226.50;231333.00;;;;4993976;28;20188;-71
2022/01/20 09:41:48;;;;;;;0.10;0.10;;;2.50;99.90;226.50;231333.00;;;;5009562;28;20657;-71
2022/01/20 09:44:18;;;;;;;0.10;0.10;;;2.50;99.90;226.50;231333.00;;;;4978084;28;20226;-71
2022/01/20 09:46:48;;;;;;;0.10;0.10;;;2.50;99.90;226.50;231333.00;;;;4977291;28;20226;-71
2022/01/20 09:49:28;;;;;;;0.10;0.10;;;2.30;99.90;226.50;231333.00;;;;4980164;28;20658;-71
2022/01/20 09:51:58;;;;;;;0.10;0.10;;;2.30;99.90;226.50;231333.00;;;;4979368;28;20243;-71
2022/01/20 09:54:39;;;;;;;0.10;0.10;;;2.30;99.90;226.50;231333.00;;;;4976073;28;20246;-72
2022/01/20 09:57:17;;;;;;;0.10;0.10;;;2.40;99.90;226.50;231333.00;;;;4976288;28;20204;-72
2022/01/20 09:59:46;;;;;;;0.10;0.10;;;2.40;99.90;226.50;231333.00;;;;4976960;28;20239;-71
2022/01/20 10:02:18;;;;;;;0.10;0.10;;;2.30;99.90;226.50;231333.00;;;;4993319;28;21056;-71
2022/01/20 10:04:52;;;;;;;0.10;0.10;;;2.50;99.90;226.50;231333.00;;;;4978006;28;20231;-70
2022/01/20 10:07:34;;;;;;;0.10;0.10;;;2.40;99.90;226.50;231333.00;;;;4978342;28;20192;-71
2022/01/20 10:10:09;;;;;;;0.10;0.10;;;2.50;99.90;226.50;231333.00;;;;4976398;28;20670;-71
2022/01/20 10:13:05;;;;;;;0.20;0.20;;;2.70;99.90;226.50;231333.00;;;;4994464;28;20207;-71
2022/01/20 10:16:12;;;;;;;0.10;0.10;;;2.80;99.90;226.50;231333.00;;;;4959289;28;20744;-71
2022/01/20 10:18:50;;;;;;;0.10;0.10;;;2.80;99.90;226.50;231333.00;;;;5006947;28;20196;-71
2022/01/20 10:21:30;;;;;;;0.17;0.17;;;2.80;99.90;226.50;231333.00;;;;5007309;28;20216;-71
2022/01/20 10:24:28;;;;;;;0.10;0.10;;;2.80;99.90;226.50;231333.00;;;;4993597;28;20538;-71
2022/01/20 10:27:17;;;;;;;0.10;0.10;;;2.80;99.90;226.50;231333.00;;;;4968830;28;20196;-70
2022/01/20 10:29:57;;;;;;;0.10;0.10;;;2.70;99.90;226.50;231333.00;;;;5008543;28;20232;-71
2022/01/20 10:32:38;;;;;;;0.10;0.10;;;2.60;99.90;226.50;231333.00;;;;5018232;28;20196;-72
2022/01/20 10:35:08;;;;;;;0.15;0.15;;;2.50;99.90;226.50;231333.00;;;;4990586;28;20215;-71
2022/01/20 10:37:39;;;;;;;0.20;0.20;;;2.70;99.90;226.50;231333.00;;;;4975864;28;20573;-73
2022/01/20 10:40:16;;;;;;;0.10;0.10;;;2.70;99.90;226.50;231333.00;;;;4977457;28;20659;-71
2022/01/20 10:42:49;;;;;;;0.10;0.10;;;2.60;99.90;226.50;231333.00;;;;4979006;28;20208;-71
2022/01/20 10:45:24;;;;;;;0.10;0.10;;;2.60;99.90;226.50;231333.00;;;;4988882;28;20208;-71
2022/01/20 10:47:58;;;;;;;0.10;0.10;;;2.70;99.90;226.50;231333.00;;;;4987238;28;20211;-71
2022/01/20 10:50:31;;;;;;;0.10;0.10;;;2.80;99.90;226.50;231333.00;;;;4974316;28;20227;-71
2022/01/20 10:53:04;;;;;;;0.10;0.10;;;2.80;99.90;226.50;231333.00;;;;4975354;28;20204;-71
2022/01/20 10:55:35;;;;;;;0.10;0.10;;;2.80;99.90;226.50;231333.00;;;;4974663;28;20200;-72
2022/01/20 10:58:16;;;;;;;0.10;0.10;;;2.80;99.90;226.50;231333.00;;;;4973664;28;20212;-72
2022/01/20 11:00:47;;;;;;;0.10;0.10;;;2.70;99.90;226.50;231333.00;;;;5007311;28;20243;-73
2022/01/20 11:03:17;;;;;;;0.10;0.10;;;2.70;99.90;226.50;231333.00;;;;4975484;28;20200;-71
2022/01/20 11:05:50;;;;;;;0.10;0.10;;;2.80;99.90;226.50;231333.00;;;;4991866;28;20816;-74
2022/01/20 11:08:31;;;;;;;0.10;0.10;;;2.70;99.90;226.50;231333.00;;;;4974718;28;20283;-73
2022/01/20 11:11:02;;;;;;;0.10;0.10;;;2.90;99.90;226.50;231333.00;;;;4975191;28;20224;-70
2022/01/20 11:13:40;;;;;;;0.10;0.10;;;2.90;99.90;226.50;231333.00;;;;4974468;28;20658;-70
2022/01/20 11:16:09;;;;;;;0.10;0.10;;;2.70;99.90;226.50;231333.00;;;;5007143;28;20193;-71
2022/01/20 11:18:39;;;;;;;0.10;0.10;;;2.50;99.90;226.50;231333.00;;;;4974440;28;20681;-70
2022/01/20 11:21:07;;;;;;;0.10;0.10;;;2.70;99.90;226.50;231333.00;;;;4975396;28;20258;-71
2022/01/20 11:23:42;;;;;;;0.10;0.10;;;2.60;99.90;226.50;231333.00;;;;4974623;28;20193;-70
2022/01/20 11:26:28;;;;;;;0.10;0.10;;;2.70;99.90;226.50;231333.00;;;;4991442;28;20223;-71
2022/01/20 11:29:17;;;;;;;0.10;0.10;;;2.70;99.90;226.50;231333.00;;;;4991574;28;20210;-71
2022/01/20 11:31:56;;;;;;;0.10;0.10;;;2.70;99.90;226.50;231333.00;;;;4974354;28;20247;-72
2022/01/20 11:34:59;;;;;;;0.10;0.10;;;2.60;99.90;226.50;231333.00;;;;4992051;28;20696;-70
2022/01/20 11:37:32;;;;;;;0.10;0.10;;;2.50;99.90;226.50;231333.00;;;;4996538;28;20219;-71
2022/01/20 11:40:15;;;;;;;0.10;0.10;;;2.60;99.90;226.50;231333.00;;;;4999009;28;20200;-70
2022/01/20 11:42:55;;;;;;;0.10;0.10;;;2.60;99.90;226.50;231333.00;;;;4995018;28;20326;-71
2022/01/20 11:45:32;;;;;;;0.10;0.10;;;2.60;99.90;226.50;231333.00;;;;4995405;28;20286;-71
2022/01/20 11:48:16;;;;;;;0.10;0.10;;;2.40;99.90;226.50;231333.00;;;;4994895;28;20321;-71
2022/01/20 11:50:44;;;;;;;0.10;0.10;;;2.50;99.90;226.50;231333.00;;;;4995167;28;20228;-70
2022/01/20 11:53:15;;;;;;;0.10;0.10;;;2.40;99.90;226.50;231333.00;;;;4995872;28;20231;-70
2022/01/20 11:55:50;;;;;;;0.10;0.10;;;2.30;99.90;226.50;231333.00;;;;4978125;28;20196;-70
2022/01/20 11:58:21;;;;;;;0.10;0.10;;;2.30;99.90;226.50;231333.00;;;;4976524;28;20203;-71
2022/01/20 12:01:02;;;;;;;0.10;0.10;;;2.40;99.90;226.50;231333.00;;;;4992783;28;20286;-70
2022/01/20 12:03:32;;;;;;;0.10;0.10;;;2.30;99.90;226.50;231333.00;;;;4992131;28;20223;-73
2022/01/20 12:06:08;;;;;;;0.20;0.20;;;2.30;99.90;226.50;231333.00;;;;4973321;28;20266;-71
2022/01/20 12:08:57;;;;;;;0.10;0.10;;;2.20;99.90;226.50;231333.00;;;;4990806;28;20212;-70